Time;durP1;ratioP1;P1;durP2;ratioP2;P2;SDS_P1;SDS_P2;PMS_P1;PMS_P2;Temp;Humidity;BMP_temperature;BMP_pressure;BME280_temperature;BME280_humidity;BME280_pressure;Samples;Min_cycle;Max_cycle;Signal;HPM_P1;HPM_P2
2023/06/11 00:00:14;;;;;;;9.52;7.60;;;;;;;18.96;100.00;100357.25;5051668;28;20087;-75
2023/06/11 00:02:41;;;;;;;12.73;8.10;;;;;;;18.92;100.00;100353.50;5072435;28;20059;-75
2023/06/11 00:05:09;;;;;;;11.20;8.05;;;;;;;18.95;100.00;100352.81;5046904;28;20495;-75
2023/06/11 00:07:36;;;;;;;14.68;9.13;;;;;;;18.90;100.00;100353.03;5072361;28;20139;-75
2023/06/11 00:10:03;;;;;;;11.55;9.10;;;;;;;18.90;100.00;100353.03;5052341;28;20032;-75
2023/06/11 00:12:29;;;;;;;11.60;8.75;;;;;;;18.87;100.00;100356.56;5049096;28;20034;-75
2023/06/11 00:14:54;;;;;;;11.32;7.93;;;;;;;18.85;100.00;100358.91;5082733;28;20103;-75
2023/06/11 00:17:20;;;;;;;12.23;8.60;;;;;;;18.83;100.00;100352.00;5052614;28;20024;-75
2023/06/11 00:19:47;;;;;;;11.20;7.60;;;;;;;18.78;100.00;100355.88;5045879;28;20029;-75
2023/06/11 00:22:14;;;;;;;12.52;8.48;;;;;;;18.77;100.00;100359.84;5078002;28;20063;-75
2023/06/11 00:24:40;;;;;;;11.68;8.18;;;;;;;18.72;100.00;100357.25;5068671;28;20032;-75
2023/06/11 00:27:06;;;;;;;14.45;10.00;;;;;;;18.69;100.00;100358.78;5088654;28;20028;-75
2023/06/11 00:29:31;;;;;;;9.68;7.65;;;;;;;18.66;100.00;100358.66;5078391;28;20034;-75
2023/06/11 00:31:57;;;;;;;10.13;7.25;;;;;;;18.60;100.00;100352.44;5078626;28;20043;-75
2023/06/11 00:34:22;;;;;;;14.32;8.77;;;;;;;18.55;100.00;100341.44;5075374;28;20032;-75
2023/06/11 00:36:48;;;;;;;11.48;8.23;;;;;;;18.52;100.00;100356.19;5052964;28;20044;-75
2023/06/11 00:39:13;;;;;;;10.20;8.00;;;;;;;18.48;100.00;100352.47;5060572;28;20024;-75
2023/06/11 00:41:45;;;;;;;15.63;9.98;;;;;;;18.48;100.00;100352.47;5072859;28;20024;-75
2023/06/11 00:44:17;;;;;;;10.40;7.68;;;;;;;18.44;100.00;100349.53;5094760;28;20067;-75
2023/06/11 00:46:47;;;;;;;11.02;8.30;;;;;;;18.42;100.00;100346.25;5080220;28;20040;-75
2023/06/11 00:49:13;;;;;;;9.63;7.03;;;;;;;18.37;100.00;100346.47;5085723;28;20031;-75
2023/06/11 00:51:42;;;;;;;9.88;7.25;;;;;;;18.36;100.00;100344.00;5088320;28;20081;-75
2023/06/11 00:54:16;;;;;;;9.65;8.00;;;;;;;18.33;100.00;100354.00;5065300;28;20479;-75
2023/06/11 00:56:48;;;;;;;9.63;7.20;;;;;;;18.32;100.00;100352.31;5067959;28;20071;-75
2023/06/11 00:59:15;;;;;;;13.13;8.23;;;;;;;18.32;100.00;100349.53;5065026;28;20032;-75
2023/06/11 01:02:01;;;;;;;11.52;7.45;;;;;;;18.29;100.00;100345.41;5047647;28;20043;-75
2023/06/11 01:04:27;;;;;;;11.27;7.90;;;;;;;18.26;100.00;100336.88;5091212;28;20036;-75
2023/06/11 01:06:54;;;;;;;10.80;8.20;;;;;;;18.23;100.00;100340.38;5094922;28;20059;-75
2023/06/11 01:09:20;;;;;;;10.15;7.88;;;;;;;18.22;100.00;100341.53;5081595;28;20115;-75
2023/06/11 01:11:48;;;;;;;12.88;7.78;;;;;;;18.21;100.00;100351.97;5078564;28;20164;-75
2023/06/11 01:14:16;;;;;;;13.20;8.20;;;;;;;18.20;100.00;100341.09;5032185;28;20388;-75
2023/06/11 01:16:53;;;;;;;11.43;8.52;;;;;;;18.18;100.00;100349.03;5064071;28;20095;-75
2023/06/11 01:19:37;;;;;;;10.30;7.30;;;;;;;18.16;100.00;100351.38;5081413;28;20023;-75
2023/06/11 01:22:30;;;;;;;10.48;8.25;;;;;;;18.12;100.00;100347.63;5086614;28;20073;-75
2023/06/11 01:25:13;;;;;;;13.70;9.40;;;;;;;18.09;100.00;100341.53;5034627;28;20054;-75
2023/06/11 01:28:00;;;;;;;18.40;10.48;;;;;;;18.03;100.00;100342.13;5082973;28;20485;-74
2023/06/11 01:30:28;;;;;;;13.82;8.82;;;;;;;17.95;100.00;100331.81;5080928;28;20028;-74
2023/06/11 01:32:56;;;;;;;18.55;11.52;;;;;;;17.88;100.00;100337.16;5094599;28;20032;-75
2023/06/11 01:35:22;;;;;;;13.57;9.15;;;;;;;17.90;100.00;100327.22;5064730;28;20393;-75
2023/06/11 01:37:55;;;;;;;14.88;8.75;;;;;;;17.90;100.00;100332.84;5086240;28;20392;-75
2023/06/11 01:40:20;;;;;;;;;;;;;;;17.91;100.00;100330.84;5081353;28;20495;-75
2023/06/11 01:42:45;;;;;;;12.88;8.57;;;;;;;17.95;100.00;100340.22;5094015;28;19912;-75
2023/06/11 01:45:11;;;;;;;15.52;8.35;;;;;;;17.92;100.00;100336.13;5074073;28;20456;-75
2023/06/11 01:47:36;;;;;;;12.32;9.07;;;;;;;17.94;100.00;100338.56;5080645;28;20052;-75
2023/06/11 01:50:02;;;;;;;12.85;9.05;;;;;;;17.92;100.00;100330.50;5063991;28;20020;-75
2023/06/11 01:52:28;;;;;;;14.43;9.77;;;;;;;17.81;100.00;100335.75;5112086;28;20075;-75
2023/06/11 01:54:53;;;;;;;11.90;9.13;;;;;;;17.86;100.00;100337.53;5080430;28;20024;-74
2023/06/11 01:57:19;;;;;;;14.23;8.68;;;;;;;17.86;100.00;100331.91;5067503;28;20024;-74
2023/06/11 01:59:44;;;;;;;18.13;10.60;;;;;;;17.85;100.00;100341.47;5093995;28;20495;-75
2023/06/11 02:02:10;;;;;;;13.60;8.88;;;;;;;17.86;100.00;100343.13;5093058;28;20024;-75
2023/06/11 02:04:35;;;;;;;12.65;7.70;;;;;;;17.88;100.00;100340.78;5102512;28;20036;-75
2023/06/11 02:07:01;;;;;;;9.88;7.13;;;;;;;17.91;100.00;100345.69;5093867;28;20484;-75
2023/06/11 02:09:27;;;;;;;11.48;7.53;;;;;;;17.91;100.00;100342.88;5080258;28;20035;-75
2023/06/11 02:11:52;;;;;;;9.82;7.95;;;;;;;17.91;100.00;100348.50;5094513;28;20028;-75
2023/06/11 02:14:17;;;;;;;11.25;7.30;;;;;;;17.92;100.00;100352.97;5071292;28;20027;-74
2023/06/11 02:16:43;;;;;;;11.93;8.23;;;;;;;17.94;100.00;100355.44;5063301;28;20025;-75
2023/06/11 02:19:08;;;;;;;10.57;7.95;;;;;;;17.93;100.00;100357.41;5080060;28;20027;-75
2023/06/11 02:21:34;;;;;;;12.23;8.10;;;;;;;17.93;100.00;100356.59;5103364;28;20043;-74
2023/06/11 02:23:59;;;;;;;9.82;7.13;;;;;;;17.95;100.00;100352.28;5087935;28;20127;-75
2023/06/11 02:26:25;;;;;;;14.02;7.70;;;;;;;17.95;100.00;100360.72;5079998;28;20036;-75
2023/06/11 02:28:52;;;;;;;10.70;7.60;;;;;;;17.96;100.00;100359.53;5091024;28;20047;-75
2023/06/11 02:31:17;;;;;;;13.20;8.13;;;;;;;17.95;100.00;100360.72;5080594;28;20035;-75
2023/06/11 02:33:42;;;;;;;11.10;7.32;;;;;;;17.95;100.00;100355.09;5098349;28;20036;-75
2023/06/11 02:36:08;;;;;;;12.10;7.35;;;;;;;17.96;100.00;100359.53;5063195;28;20082;-75
2023/06/11 02:38:33;;;;;;;10.10;7.20;;;;;;;18.00;100.00;100359.69;5091701;28;20031;-74
2023/06/11 02:40:59;;;;;;;11.85;7.18;;;;;;;17.98;100.00;100354.38;5081203;28;20020;-75
2023/06/11 02:43:24;;;;;;;10.10;7.03;;;;;;;17.97;100.00;100349.09;5098145;28;20101;-75
2023/06/11 02:45:50;;;;;;;9.40;7.20;;;;;;;17.99;100.00;100352.41;5080886;28;20403;-74
2023/06/11 02:48:15;;;;;;;12.43;7.53;;;;;;;18.00;100.00;100351.25;5063031;28;20044;-75
2023/06/11 02:50:41;;;;;;;12.77;7.60;;;;;;;17.97;100.00;100341.53;5094815;28;20028;-75
2023/06/11 02:53:06;;;;;;;11.82;7.18;;;;;;;17.98;100.00;100350.75;5097924;28;20043;-75
2023/06/11 02:55:32;;;;;;;10.55;7.28;;;;;;;17.98;100.00;100347.97;5079637;28;20024;-75
2023/06/11 02:57:57;;;;;;;11.55;7.25;;;;;;;17.99;100.00;100347.59;5097576;28;20024;-74
2023/06/11 03:00:22;;;;;;;12.18;7.32;;;;;;;18.02;100.00;100348.88;5103414;28;20039;-74
2023/06/11 03:02:48;;;;;;;9.30;7.10;;;;;;;17.99;100.00;100347.59;5107605;28;20035;-74
2023/06/11 03:05:13;;;;;;;13.60;7.47;;;;;;;17.99;100.00;100344.78;5084293;28;20507;-74
2023/06/11 03:07:39;;;;;;;9.75;6.95;;;;;;;18.01;100.00;100344.44;5107749;28;20472;-74
2023/06/11 03:10:05;;;;;;;9.65;7.22;;;;;;;17.98;100.00;100353.56;5097377;28;20032;-74
2023/06/11 03:12:30;;;;;;;12.73;8.52;;;;;;;17.99;100.00;100353.22;5078790;28;20119;-75
2023/06/11 03:14:56;;;;;;;11.30;7.68;;;;;;;17.97;100.00;100349.09;5078910;28;20032;-75
2023/06/11 03:17:21;;;;;;;12.43;8.30;;;;;;;18.02;100.00;100357.31;5069822;28;20035;-74
2023/06/11 03:19:47;;;;;;;14.43;7.63;;;;;;;17.95;100.00;100354.28;5062879;28;20032;-75
2023/06/11 03:22:13;;;;;;;12.38;8.02;;;;;;;17.97;100.00;100361.19;5051447;28;20028;-74
2023/06/11 03:24:38;;;;;;;11.05;7.80;;;;;;;17.92;100.00;100357.78;5078917;28;20472;-75
2023/06/11 03:27:05;;;;;;;11.25;7.93;;;;;;;17.95;100.00;100365.50;5108126;28;20035;-75
2023/06/11 03:29:30;;;;;;;13.77;7.95;;;;;;;17.91;100.00;100364.53;5078488;28;20036;-75
2023/06/11 03:31:56;;;;;;;12.80;7.88;;;;;;;17.89;100.00;100366.91;5099467;28;20032;-74
2023/06/11 03:34:22;;;;;;;14.52;8.00;;;;;;;17.89;100.00;100364.09;5100281;28;20028;-75
2023/06/11 03:36:47;;;;;;;11.27;7.57;;;;;;;17.90;100.00;100372.16;5053335;28;20039;-74
2023/06/11 03:39:12;;;;;;;13.63;8.10;;;;;;;17.86;100.00;100369.22;5100086;28;20361;-75
2023/06/11 03:41:38;;;;;;;12.77;8.45;;;;;;;17.86;100.00;100371.22;5069629;28;20028;-74
2023/06/11 03:44:03;;;;;;;11.88;8.60;;;;;;;17.87;100.00;100372.84;5082975;28;20028;-74
2023/06/11 03:46:29;;;;;;;10.73;8.07;;;;;;;17.87;100.00;100370.06;5071242;28;20492;-74
2023/06/11 03:48:54;;;;;;;12.80;8.60;;;;;;;17.85;100.00;100372.38;5079571;28;20030;-75
2023/06/11 03:51:20;;;;;;;11.88;8.43;;;;;;;17.86;100.00;100372.03;5045890;28;20020;-75
2023/06/11 03:53:45;;;;;;;12.18;8.32;;;;;;;17.86;100.00;100372.03;5095340;28;20032;-75
2023/06/11 03:56:11;;;;;;;11.43;8.65;;;;;;;17.85;100.00;100369.56;5079277;28;20028;-75
2023/06/11 03:58:36;;;;;;;11.57;8.27;;;;;;;17.86;100.00;100372.03;5079873;28;20092;-75
2023/06/11 04:01:02;;;;;;;14.45;8.40;;;;;;;17.85;100.00;100376.00;5045254;28;20598;-74
2023/06/11 04:03:27;;;;;;;15.57;8.82;;;;;;;17.87;100.00;100372.84;5112636;28;20024;-75
2023/06/11 04:05:53;;;;;;;12.15;8.50;;;;;;;17.89;100.00;100375.34;5071459;28;20047;-74
2023/06/11 04:08:18;;;;;;;11.20;8.45;;;;;;;17.87;100.00;100384.09;5096239;28;20042;-75
2023/06/11 04:10:43;;;;;;;15.13;9.05;;;;;;;17.82;100.00;100375.88;5105505;28;20028;-75
2023/06/11 04:13:09;;;;;;;17.75;12.07;;;;;;;17.81;100.00;100372.25;5118704;28;20036;-74
2023/06/11 04:15:34;;;;;;;21.60;13.70;;;;;;;17.80;100.00;100370.63;5082187;28;20024;-75
2023/06/11 04:18:00;;;;;;;14.05;9.82;;;;;;;17.82;100.00;100378.69;5082335;28;20054;-75
2023/06/11 04:20:25;;;;;;;14.20;9.98;;;;;;;17.80;100.00;100369.78;5073332;28;20027;-75
2023/06/11 04:22:53;;;;;;;14.82;8.98;;;;;;;17.83;100.00;100375.56;5100227;28;20070;-74
2023/06/11 04:25:18;;;;;;;13.85;9.48;;;;;;;17.80;100.00;100366.97;5065517;28;20039;-75
2023/06/11 04:27:46;;;;;;;16.58;9.43;;;;;;;17.79;100.00;100373.78;5084241;28;20040;-75
2023/06/11 04:30:13;;;;;;;17.35;11.27;;;;;;;17.77;100.00;100374.06;5091607;28;20057;-74
2023/06/11 04:32:40;;;;;;;13.65;9.68;;;;;;;17.75;100.00;100375.59;5085996;28;20028;-75
2023/06/11 04:35:06;;;;;;;17.48;10.57;;;;;;;17.70;100.00;100359.78;5075097;28;20049;-75
2023/06/11 04:37:38;;;;;;;20.33;11.70;;;;;;;17.65;100.00;100372.03;5072063;28;20039;-74
2023/06/11 04:40:09;;;;;;;19.10;9.83;;;;;;;17.62;100.00;100371.91;5109633;28;20468;-74
2023/06/11 04:42:41;;;;;;;15.90;9.57;;;;;;;17.60;100.00;100380.69;5078475;28;20024;-74
2023/06/11 04:45:10;;;;;;;13.83;9.50;;;;;;;17.58;100.00;100377.41;5081898;28;20032;-74
2023/06/11 04:47:36;;;;;;;16.42;9.32;;;;;;;17.56;100.00;100378.94;5099699;28;20060;-74
2023/06/11 04:50:04;;;;;;;13.90;9.68;;;;;;;17.53;100.00;100388.84;5081841;28;20075;-75
2023/06/11 04:52:35;;;;;;;14.70;9.00;;;;;;;17.51;100.00;100390.38;5081874;28;20085;-75
2023/06/11 04:55:01;;;;;;;13.55;8.68;;;;;;;17.48;100.00;100389.06;5048464;28;20031;-74
2023/06/11 04:57:27;;;;;;;14.75;8.80;;;;;;;17.46;100.00;100402.59;5048549;28;20028;-75
2023/06/11 04:59:53;;;;;;;14.32;8.43;;;;;;;17.44;100.00;100402.16;5083190;28;20028;-74
2023/06/11 05:02:19;;;;;;;13.73;8.50;;;;;;;17.44;100.00;100399.34;5093832;28;20369;-74
2023/06/11 05:04:49;;;;;;;15.60;8.70;;;;;;;17.42;100.00;100407.28;5084504;28;20369;-75
2023/06/11 05:07:15;;;;;;;15.07;8.90;;;;;;;17.41;100.00;100411.22;5088405;28;20376;-74
2023/06/11 05:09:42;;;;;;;16.08;8.70;;;;;;;17.40;100.00;100410.41;5105914;28;20422;-74
2023/06/11 05:12:08;;;;;;;12.10;8.32;;;;;;;17.41;100.00;100411.22;5115836;28;20038;-74
2023/06/11 05:14:33;;;;;;;12.05;7.75;;;;;;;17.37;100.00;100408.28;5105117;28;20111;-74
2023/06/11 05:16:59;;;;;;;11.15;7.00;;;;;;;17.41;100.00;100411.22;5081082;28;20032;-74
2023/06/11 05:19:25;;;;;;;12.15;8.02;;;;;;;17.47;100.00;100418.31;5076098;28;20028;-74
2023/06/11 05:21:50;;;;;;;14.68;9.85;;;;;;;17.49;100.00;100413.16;5077257;28;20028;-75
2023/06/11 05:24:20;;;;;;;14.38;10.15;;;;;;;17.54;100.00;100414.94;5077614;28;20032;-75
2023/06/11 05:26:45;;;;;;;13.65;9.32;;;;;;;17.59;100.00;100417.53;5081400;28;20036;-75
2023/06/11 05:29:11;;;;;;;18.58;12.77;;;;;;;17.65;100.00;100416.97;5094701;28;20027;-75
2023/06/11 05:31:36;;;;;;;25.00;13.02;;;;;;;17.75;100.00;100415.75;5111210;28;20028;-75
2023/06/11 05:34:02;;;;;;;20.33;13.23;;;;;;;17.85;100.00;100415.31;5076805;28;20069;-75
2023/06/11 05:36:28;;;;;;;15.52;9.63;;;;;;;17.99;100.00;100415.03;5080570;28;20031;-75
2023/06/11 05:38:54;;;;;;;17.52;10.73;;;;;;;18.14;100.00;100415.56;5051908;28;20051;-75
2023/06/11 05:41:19;;;;;;;15.18;9.30;;;;;;;18.28;100.00;100416.06;5092888;28;20064;-75
2023/06/11 05:43:46;;;;;;;20.25;9.65;;;;;;;18.40;100.00;100418.88;5060604;28;20035;-75
2023/06/11 05:46:12;;;;;;;15.85;10.68;;;;;;;18.51;100.00;100411.63;5110126;28;20111;-75
2023/06/11 05:48:38;;;;;;;16.55;10.98;;;;;;;18.62;100.00;100419.59;5077232;28;20077;-75
2023/06/11 05:51:04;;;;;;;16.02;11.02;;;;;;;18.66;100.00;100414.91;5092469;28;20027;-75
2023/06/11 05:53:29;;;;;;;17.30;11.55;;;;;;;18.71;100.00;100420.31;5080782;28;20357;-75
2023/06/11 05:55:55;;;;;;;15.25;9.93;;;;;;;18.82;100.00;100429.13;5080413;28;20024;-75
2023/06/11 05:58:20;;;;;;;17.15;10.50;;;;;;;18.87;100.00;100426.91;5080504;28;20078;-75
2023/06/11 06:00:46;;;;;;;14.95;9.93;;;;;;;18.92;100.00;100429.50;5069307;28;20043;-75
2023/06/11 06:03:11;;;;;;;16.20;9.77;;;;;;;19.02;100.00;100431.00;5076522;28;20035;-75
2023/06/11 06:05:37;;;;;;;13.68;9.48;;;;;;;19.05;100.00;100433.09;5087219;28;20048;-75
2023/06/11 06:08:02;;;;;;;13.93;9.35;;;;;;;19.09;100.00;100425.59;5086666;28;20040;-75
2023/06/11 06:10:28;;;;;;;15.88;8.77;;;;;;;19.15;100.00;100427.00;5066239;28;20043;-75
2023/06/11 06:12:53;;;;;;;14.77;9.48;;;;;;;19.17;100.00;100429.47;5118781;28;20024;-75
2023/06/11 06:15:19;;;;;;;17.00;10.43;;;;;;;19.20;100.00;100417.50;5079508;28;20480;-75
2023/06/11 06:17:44;;;;;;;13.68;8.65;;;;;;;19.26;100.00;100420.88;5080408;28;20028;-75
2023/06/11 06:20:11;;;;;;;15.18;9.05;;;;;;;19.32;100.00;100422.28;5079991;28;20036;-75
2023/06/11 06:22:38;;;;;;;14.93;8.18;;;;;;;19.43;100.00;100423.41;5093469;28;20088;-75
2023/06/11 06:25:03;;;;;;;14.63;9.43;;;;;;;19.50;100.00;100428.44;5066764;28;20047;-75
2023/06/11 06:27:30;;;;;;;14.05;9.85;;;;;;;19.59;100.00;100429.13;5080848;28;20024;-75
2023/06/11 06:29:55;;;;;;;14.70;9.10;;;;;;;19.70;100.00;100430.28;5090847;28;20024;-75
2023/06/11 06:32:21;;;;;;;11.48;8.10;;;;;;;19.78;100.00;100426.50;5093537;28;20032;-75
2023/06/11 06:34:46;;;;;;;8.50;6.82;;;;;;;19.94;100.00;100429.34;5047071;28;20028;-75
2023/06/11 06:37:12;;;;;;;13.30;7.75;;;;;;;20.05;100.00;100432.47;5064059;28;20082;-75
2023/06/11 06:39:37;;;;;;;11.35;7.38;;;;;;;20.14;100.00;100433.13;5092508;28;20028;-75
2023/06/11 06:42:03;;;;;;;11.07;6.20;;;;;;;20.25;100.00;100439.91;5079654;28;20077;-75
2023/06/11 06:44:28;;;;;;;10.15;6.03;;;;;;;20.40;100.00;100440.28;5029686;28;20166;-75
2023/06/11 06:46:54;;;;;;;8.98;5.50;;;;;;;20.47;100.00;100435.63;5079363;28;20047;-75
2023/06/11 06:49:20;;;;;;;6.85;4.30;;;;;;;20.60;100.00;100439.22;5097726;28;20468;-75
2023/06/11 06:51:46;;;;;;;7.57;4.47;;;;;;;20.72;100.00;100441.94;5075384;28;20032;-75
2023/06/11 06:54:12;;;;;;;12.18;5.95;;;;;;;20.75;100.00;100434.75;5079573;28;20028;-75
2023/06/11 06:56:37;;;;;;;8.88;4.60;;;;;;;20.88;100.00;100432.66;5093215;28;20084;-75
2023/06/11 06:59:03;;;;;;;8.50;4.43;;;;;;;20.96;100.00;100442.94;5079224;28;20077;-75
2023/06/11 07:01:28;;;;;;;11.27;5.75;;;;;;;20.96;100.00;100440.13;5112007;28;20031;-75
2023/06/11 07:03:53;;;;;;;7.78;4.70;;;;;;;20.99;100.00;100433.75;5082398;28;20028;-75
2023/06/11 07:06:19;;;;;;;6.88;4.60;;;;;;;21.12;100.00;100432.44;5092258;28;20038;-75
2023/06/11 07:08:44;;;;;;;5.47;3.15;;;;;;;21.29;100.00;100434.03;5063589;28;20036;-75
2023/06/11 07:11:10;;;;;;;5.97;3.30;;;;;;;21.40;100.00;100434.31;5055593;28;20024;-75
2023/06/11 07:13:35;;;;;;;6.65;3.13;;;;;;;21.59;100.00;100447.63;5092786;28;20043;-75
2023/06/11 07:16:01;;;;;;;5.53;2.75;;;;;;;21.72;100.00;100431.34;5079160;28;20053;-75
2023/06/11 07:18:27;;;;;;;8.20;2.55;;;;;;;21.85;100.00;100441.34;5097320;28;20035;-75
2023/06/11 07:20:53;;;;;;;4.60;2.92;;;;;;;22.07;100.00;100434.09;5079517;28;20028;-75
2023/06/11 07:23:18;;;;;;;3.17;2.10;;;;;;;22.24;100.00;100442.13;5110754;28;20510;-75
2023/06/11 07:25:44;;;;;;;4.80;2.30;;;;;;;22.38;100.00;100446.44;5072369;28;20024;-75
2023/06/11 07:28:10;;;;;;;4.68;2.30;;;;;;;22.49;100.00;100442.59;5082270;28;20104;-75
2023/06/11 07:30:35;;;;;;;6.03;2.47;;;;;;;22.58;100.00;100439.50;5062323;28;20031;-75
2023/06/11 07:33:01;;;;;;;6.82;2.33;;;;;;;22.74;100.00;100433.72;5062598;28;20138;-75
2023/06/11 07:35:26;;;;;;;8.38;2.78;;;;;;;22.93;100.00;100430.81;5075451;28;20043;-75
2023/06/11 07:37:52;;;;;;;3.22;2.25;;;;;;;23.09;100.00;100439.16;5074344;28;20020;-76
2023/06/11 07:40:18;;;;;;;4.40;2.25;;;;;;;23.25;100.00;100439.00;5089847;28;20476;-75
2023/06/11 07:42:43;;;;;;;6.93;2.17;;;;;;;23.27;100.00;100445.09;5114800;28;20085;-75
2023/06/11 07:45:09;;;;;;;3.97;1.98;;;;;;;23.53;100.00;100451.94;5075782;28;20024;-75
2023/06/11 07:47:35;;;;;;;4.70;1.90;;;;;;;23.68;100.00;100456.63;5089249;28;20051;-75
2023/06/11 07:50:01;;;;;;;7.05;2.70;;;;;;;23.79;100.00;100451.09;5108024;28;20035;-75
2023/06/11 07:52:27;;;;;;;4.63;2.20;;;;;;;23.91;100.00;100452.88;5082629;28;20065;-76
2023/06/11 07:54:52;;;;;;;4.85;2.20;;;;;;;24.01;100.00;100452.19;5100051;28;20419;-69
2023/06/11 07:57:18;;;;;;;4.75;1.77;;;;;;;24.15;100.00;100441.00;5120699;28;20104;-69
2023/06/11 07:59:43;;;;;;;4.05;2.00;;;;;;;24.24;100.00;100447.19;5120053;28;20027;-69
2023/06/11 08:02:10;;;;;;;3.88;2.20;;;;;;;24.31;100.00;100444.41;5083241;28;20031;-69
2023/06/11 08:04:36;;;;;;;5.97;2.10;;;;;;;24.40;100.00;100451.81;5083562;28;20093;-69
2023/06/11 08:07:01;;;;;;;6.45;2.40;;;;;;;24.48;100.00;100443.00;5081097;28;20040;-72
2023/06/11 08:09:27;;;;;;;7.28;2.22;;;;;;;24.58;100.00;100449.19;5097440;28;20438;-69
2023/06/11 08:11:52;;;;;;;6.47;2.15;;;;;;;24.74;100.00;100444.88;5064447;28;20091;-69
2023/06/11 08:14:20;;;;;;;4.15;1.90;;;;;;;24.90;100.00;100452.28;5085503;28;20020;-69
2023/06/11 08:16:45;;;;;;;3.53;2.00;;;;;;;25.07;100.00;100439.44;5082502;28;20028;-69
2023/06/11 08:19:14;;;;;;;4.60;2.10;;;;;;;25.13;100.00;100443.53;5075056;28;20024;-69
2023/06/11 08:21:41;;;;;;;6.10;2.42;;;;;;;25.26;100.00;100444.06;5095773;28;20056;-69
2023/06/11 08:24:07;;;;;;;4.60;1.80;;;;;;;25.40;100.00;100449.84;5067430;28;20076;-69
2023/06/11 08:26:32;;;;;;;7.80;1.92;;;;;;;25.40;100.00;100441.31;5082010;28;20028;-69
2023/06/11 08:28:58;;;;;;;4.47;1.80;;;;;;;25.60;100.00;100438.97;5063290;28;20032;-69
2023/06/11 08:31:24;;;;;;;7.07;1.92;;;;;;;25.68;100.00;100442.69;5081855;28;20032;-69
2023/06/11 08:33:50;;;;;;;5.50;2.00;;;;;;;25.72;100.00;100440.69;5101013;28;20035;-69
2023/06/11 08:36:16;;;;;;;4.22;1.60;;;;;;;25.79;100.00;100447.19;5093928;28;20073;-69
2023/06/11 08:38:42;;;;;;;3.30;1.85;;;;;;;25.76;100.00;100447.19;5085181;28;20031;-69
2023/06/11 08:41:07;;;;;;;6.00;1.95;;;;;;;25.81;100.00;100443.97;5087811;28;20032;-69
2023/06/11 08:43:33;;;;;;;8.15;2.00;;;;;;;25.82;100.00;100437.06;5076993;28;20049;-69
2023/06/11 08:45:58;;;;;;;5.70;2.00;;;;;;;25.97;100.00;100441.63;5081309;28;20107;-68
2023/06/11 08:48:24;;;;;;;5.45;1.52;;;;;;;26.12;100.00;100442.47;5070923;28;20052;-69
2023/06/11 08:50:50;;;;;;;5.13;1.70;;;;;;;26.24;100.00;100439.28;5080745;27;20030;-69
2023/06/11 08:53:16;;;;;;;3.75;1.27;;;;;;;26.36;99.73;100440.91;5080653;28;20082;-69
2023/06/11 08:55:41;;;;;;;4.63;1.60;;;;;;;26.55;100.00;100436.06;5084057;28;20024;-69
2023/06/11 08:58:11;;;;;;;4.40;1.50;;;;;;;26.66;97.31;100432.03;5064996;28;20043;-69
2023/06/11 09:00:37;;;;;;;4.43;1.77;;;;;;;26.81;95.17;100437.75;5081262;28;20050;-69
2023/06/11 09:03:03;;;;;;;3.67;1.33;;;;;;;26.93;97.16;100440.97;5094225;28;20103;-69
2023/06/11 09:05:28;;;;;;;3.75;1.35;;;;;;;27.06;97.10;100438.53;5037140;28;20095;-69
2023/06/11 09:07:55;;;;;;;4.70;1.85;;;;;;;27.25;95.92;100440.19;5068353;28;20032;-69
2023/06/11 09:10:20;;;;;;;7.43;1.50;;;;;;;27.37;94.36;100442.56;5083063;28;20039;-69
2023/06/11 09:12:46;;;;;;;5.20;1.60;;;;;;;27.38;94.12;100454.78;5064661;28;20385;-69
2023/06/11 09:15:12;;;;;;;2.88;1.42;;;;;;;27.45;92.58;100445.44;5083266;28;20085;-69
2023/06/11 09:17:41;;;;;;;5.28;1.50;;;;;;;27.50;93.93;100440.13;5077461;28;20452;-69
2023/06/11 09:20:08;;;;;;;2.88;1.33;;;;;;;27.60;93.43;100438.44;5081474;28;20165;-69
2023/06/11 09:22:35;;;;;;;4.68;1.52;;;;;;;27.64;92.70;100439.25;5079723;28;20430;-69
2023/06/11 09:25:09;;;;;;;3.45;1.20;;;;;;;27.69;92.83;100450.22;5081441;28;20392;-69
2023/06/11 09:27:38;;;;;;;4.97;1.63;;;;;;;27.68;89.96;100451.47;5054972;28;20027;-69
2023/06/11 09:30:15;;;;;;;5.50;1.70;;;;;;;27.63;91.07;100451.88;5063800;28;20029;-69
2023/06/11 09:32:41;;;;;;;3.88;1.40;;;;;;;27.59;91.66;100449.03;5074234;28;20484;-69
2023/06/11 09:35:08;;;;;;;3.45;1.50;;;;;;;27.62;94.07;100445.38;5055115;28;20062;-69
2023/06/11 09:37:44;;;;;;;4.75;1.48;;;;;;;27.76;93.76;100441.66;5074347;28;20039;-69
2023/06/11 09:40:11;;;;;;;5.20;1.65;;;;;;;27.88;90.22;100446.09;5056697;28;20430;-69
2023/06/11 09:42:37;;;;;;;4.38;1.58;;;;;;;28.03;90.76;100439.13;5070349;28;20027;-68
2023/06/11 09:45:02;;;;;;;4.00;1.40;;;;;;;28.09;88.99;100439.50;5063525;28;20035;-68
2023/06/11 09:47:28;;;;;;;4.43;1.27;;;;;;;28.12;86.88;100447.22;5043644;28;20040;-68
2023/06/11 09:49:54;;;;;;;2.17;1.17;;;;;;;28.10;84.92;100449.69;5077019;28;20537;-69
2023/06/11 09:52:20;;;;;;;2.70;1.20;;;;;;;28.08;79.02;100440.69;5044005;28;20032;-68
2023/06/11 09:54:47;;;;;;;2.53;1.35;;;;;;;28.12;83.85;100454.97;5053631;28;20503;-68
2023/06/11 09:57:14;;;;;;;3.72;1.70;;;;;;;28.20;75.06;100448.00;5060527;28;20049;-68
2023/06/11 09:59:40;;;;;;;3.70;1.38;;;;;;;28.32;77.83;100443.84;5055923;28;20027;-68
2023/06/11 10:02:05;;;;;;;3.92;1.35;;;;;;;28.50;83.94;100444.56;5076846;28;20028;-69
2023/06/11 10:04:31;;;;;;;3.58;1.17;;;;;;;28.70;81.55;100442.00;5058084;28;20028;-68
2023/06/11 10:06:56;;;;;;;4.10;1.30;;;;;;;28.86;75.95;100444.28;5089953;28;20039;-69
2023/06/11 10:09:22;;;;;;;2.78;1.10;;;;;;;29.06;76.73;100442.53;5052343;28;20021;-68
2023/06/11 10:11:47;;;;;;;3.40;1.08;;;;;;;29.26;78.37;100439.88;5074308;28;20067;-68
2023/06/11 10:14:15;;;;;;;2.20;0.85;;;;;;;29.44;76.67;100442.53;5067687;28;20078;-68
2023/06/11 10:16:47;;;;;;;3.00;1.23;;;;;;;29.61;71.48;100435.81;5056523;28;20107;-68
2023/06/11 10:19:14;;;;;;;3.90;1.00;;;;;;;29.81;72.08;100438.03;5068340;28;20025;-69
2023/06/11 10:21:50;;;;;;;4.85;1.13;;;;;;;30.04;67.55;100443.06;5040749;28;20107;-68
2023/06/11 10:24:22;;;;;;;3.75;1.10;;;;;;;30.24;68.10;100434.66;5077440;28;20032;-68
2023/06/11 10:27:07;;;;;;;5.40;1.00;;;;;;;30.43;67.33;100436.00;5088732;28;20107;-68
2023/06/11 10:29:46;;;;;;;3.92;1.40;;;;;;;30.46;67.66;100435.13;5076000;28;20480;-69
2023/06/11 10:32:19;;;;;;;5.43;1.23;;;;;;;30.49;65.67;100435.06;5080781;28;20024;-69
2023/06/11 10:34:53;;;;;;;2.70;1.33;;;;;;;30.57;64.75;100434.97;5027196;28;20040;-69
2023/06/11 10:37:26;;;;;;;3.08;1.40;;;;;;;30.62;65.13;100431.59;5069317;28;20562;-69
2023/06/11 10:39:54;;;;;;;3.83;1.40;;;;;;;30.75;68.29;100429.75;5076564;28;20024;-69
2023/06/11 10:42:23;;;;;;;3.63;1.15;;;;;;;30.91;68.21;100427.06;5042675;28;20492;-69
2023/06/11 10:44:49;;;;;;;3.03;1.20;;;;;;;31.12;67.00;100433.63;5060093;28;20024;-69
2023/06/11 10:47:15;;;;;;;3.45;1.40;;;;;;;31.24;63.00;100430.16;5072905;28;20546;-69
2023/06/11 10:49:40;;;;;;;2.55;1.13;;;;;;;31.44;61.59;100427.34;5083142;28;20095;-69
2023/06/11 10:52:06;;;;;;;2.85;1.30;;;;;;;31.61;62.43;100429.03;5091860;28;20024;-69
2023/06/11 10:54:32;;;;;;;2.30;1.10;;;;;;;31.77;59.17;100431.19;5082980;28;20031;-69
2023/06/11 10:57:00;;;;;;;5.07;1.70;;;;;;;31.98;60.41;100429.13;5082041;28;20028;-69
2023/06/11 10:59:27;;;;;;;2.75;1.20;;;;;;;32.19;57.20;100430.72;5099570;28;20047;-69
2023/06/11 11:01:53;;;;;;;5.22;1.10;;;;;;;32.29;54.57;100435.44;5063896;28;20027;-69
2023/06/11 11:04:18;;;;;;;4.63;1.90;;;;;;;32.52;53.70;100437.38;5084080;28;20039;-68
2023/06/11 11:06:44;;;;;;;4.20;1.20;;;;;;;32.70;54.27;100439.78;5082219;28;20028;-69
2023/06/11 11:09:09;;;;;;;2.17;0.90;;;;;;;32.83;54.96;100431.28;5076974;28;20050;-69
2023/06/11 11:11:35;;;;;;;7.28;1.27;;;;;;;32.80;53.59;100435.84;5080504;28;20043;-69